map of YKA home
YKA - Airport
Location
City:  Kamloops, British Columbia, Canada
Name:Kamloops Airport
ICAO:CYKA
IATA:YKA

Details
Type:Airport (Airfield)
Use:Public/Civil
Latitude:5042'09"N (50.702500)
Longitude:12026'55"W (-120.448610)
Elevation:1133 ft (345 m)
Variation:16.03E (WMM2015v2 magnetic declination)
-0.11 annual change
Runways:2
Longest:8000 ft (2438 m), paved

Time
Time Zone:UTC-8 (DST-7)
Local Time:

Weather
METAR:CYKA 041400Z 29005KT 270V340 30SM FEW025 SCT065 M18/M28 A3011 RMK SC2SC1 SLP236
TAF:CYKA 041238Z 0413/0501 29010KT P6SM FEW030 SCT050 BKN090
TEMPO 0413/0420 P6SM -SN SCT030 BKN050
FM042000 27015KT P6SM SCT050
RMK NXT FCST BY 041900Z

Related Locations
Nearby:
Farthest:FTU: 10538 mi / 16960 km
Tolagnaro [Maurillac Airport (Fort Dauphin Airport)], MG

Find:

   beyond  
but within

Other Information
Maps:
NOTAMs:
Links:
Sources:

  
  • flag of Canada
  • flag of British Columbia
  

Airport Diagram

Airport diagram for YKA

Airport diagram PDF

Sectional Chart

Flight Planning
at skyvector.com

Satellite Image

Google Maps Satellite view

 

Copyright © 2004-2019 Karl L. Swartz. All rights reserved.
The Great Circle Mapper name and logo are trademarks of the Great Circle Mapper.
All other trademarks mentioned herein belong to their respective owners.
Please see credits for attibutions and further copyright information.

  Follow gcmap on Facebook Follow gcmap on Twitter GCmap on LinkedIn

hCard Microformat

Geo Microformat